1995 Severe Tropical Cyclone FRANK (1995340S10116)


IBTrACS version v04r00. Visit IBTrACS website for data access.
Please direct all questions to the IBTrACS Q and A forum

Storm track - Intensity - Wind Radii - Intensity Data - Source Data - All data

Summary Information

Satellite image near maximum intensity
Storm ID 1995340S10116
Start Dec 6 00Z
Landfall Dec 13 01Z
Max Intensity 115 kt (Dec 10 06Z), 950 mb (Dec 9 22Z)
End Dec 14 00Z
ATCF IDs SH031996
Track status Best track data.

Storm track plot

Map of storm track

Intensity plots

Map of storm track

Radial wind information

Map of storm track

Position and Intensity Table

BASIN ISO_TIME_________ NATURE LAT LON WMO WIND WMO PRES USA WIND BOM WIND BOM PRES NEUMANN WIND
degrees north degrees east kts mb kts kts mb kts
SI 1995-12-06 00:00:00 TS -10.30 115.80 15 15
SI 03:00:00 TS -10.49 116.18 17 17
SI 04:00:00 TS -10.53 116.39 20 1005 18 20 1005 18
SI 06:00:00 TS -10.65 116.66 20 20 1003 20
SI 07:00:00 TS -10.70 116.82 20 1003 20 20 1003 20
SI 09:00:00 TS -10.84 117.11 20 23 1002 20
SI 10:00:00 TS -10.92 117.25 25 1002 20 25 1002 20
SI 12:00:00 TS -11.08 117.50 20 25 1002 20
SI 13:00:00 TS -11.15 117.61 25 1002 20 25 1002 20
SI 15:00:00 TS -11.28 117.83 22 25 1000 22
SI 16:00:00 TS -11.35 117.92 25 1000 23 25 1000 23
SI 18:00:00 TS -11.48 118.07 25 28 998 25
SI 19:00:00 TS -11.54 118.16 30 998 25 30 998 25
SI 21:00:00 TS -11.67 118.35 25 30 996 25
SI 22:00:00 TS -11.74 118.44 30 996 25 30 996 25
SI 1995-12-07 00:00:00 TS -11.89 118.55 25 30 996 25
SI 01:00:00 TS -11.99 118.59 30 996 25 30 996 25
SI 03:00:00 TS -12.21 118.62 27 33 995 27
SI 04:00:00 TS -12.32 118.63 35 995 28 35 995 28
SI 06:00:00 TS -12.50 118.60 30 35 995 30
SI 07:00:00 TS -12.59 118.59 35 995 30 35 995 30
SI 09:00:00 TS -12.77 118.53 32 35 995 32
SI 10:00:00 TS -12.86 118.49 35 995 33 35 995 33
SI 12:00:00 TS -13.01 118.41 35 38 991 35
SI 13:00:00 TS -13.09 118.37 40 990 35 40 990 35
SI 15:00:00 TS -13.27 118.26 35 40 990 35
SI 16:00:00 TS -13.36 118.20 40 990 35 40 990 35
SI 18:00:00 TS -13.51 118.09 35 40 990 35
SI 19:00:00 TS -13.59 118.03 40 990 36 40 990 36
SI 21:00:00 TS -13.74 117.90 40 43 986 40
SI 22:00:00 TS -13.82 117.83 45 985 41 45 985 41
SI 1995-12-08 00:00:00 TS -14.00 117.72 45 45 985 45
SI 01:00:00 TS -14.09 117.67 45 985 45 45 985 45
SI 03:00:00 TS -14.24 117.56 45 45 985 45
SI 04:00:00 TS -14.32 117.50 45 985 45 45 985 45
SI 06:00:00 TS -14.52 117.39 45 51 981 45
SI 07:00:00 TS -14.63 117.34 55 980 45 55 980 45
SI 09:00:00 TS -14.85 117.20 47 55 980 47
SI 10:00:00 TS -14.96 117.14 55 980 48 55 980 48
SI 12:00:00 TS -15.17 117.02 50 58 976 50
SI 13:00:00 TS -15.27 116.96 60 975 50 60 975 50
SI 15:00:00 TS -15.47 116.83 52 60 975 52
SI 16:00:00 TS -15.57 116.76 60 975 53 60 975 53
SI 18:00:00 TS -15.80 116.62 55 63 971 55
SI 19:00:00 TS -15.92 116.55 65 970 56 65 970 56
SI 21:00:00 TS -16.16 116.42 60 68 966 60
SI 22:00:00 TS -16.29 116.35 70 965 61 70 965 61
SI 1995-12-09 00:00:00 TS -16.53 116.22 65 70 965 65
SI 01:00:00 TS -16.66 116.16 70 965 66 70 965 66
SI 03:00:00 TS -16.96 116.02 70 70 965 70
SI 04:00:00 TS -17.10 115.96 70 965 71 70 965 71
SI 06:00:00 TS -17.33 115.90 75 73 961 75
SI 07:00:00 TS -17.44 115.88 75 960 75 75 960 75
SI 09:00:00 TS -17.66 115.82 75 75 956 75
SI 10:00:00 TS -17.77 115.78 75 955 75 75 955 75
SI 12:00:00 TS -17.99 115.69 75 75 955 75
SI 13:00:00 TS -18.11 115.64 75 955 75 75 955 75
SI 15:00:00 TS -18.34 115.55 75 78 955 75
SI 16:00:00 TS -18.45 115.51 80 955 75 80 955 75
SI 18:00:00 TS -18.64 115.41 75 83 955 75
SI 19:00:00 TS -18.74 115.36 85 955 77 85 955 77
SI 21:00:00 TS -18.93 115.25 82 88 951 82
SI 22:00:00 TS -19.04 115.19 90 950 85 90 950 85
SI 1995-12-10 00:00:00 TS -19.26 115.06 90 90 950 90
SI 01:00:00 TS -19.37 115.00 90 950 94 90 950 94
SI 03:00:00 TS -19.58 114.88 102 93 950 102
SI 04:00:00 TS -19.68 114.83 95 950 106 95 950 106
SI 06:00:00 TS -19.85 114.74 115 95 950 115
SI 07:00:00 TS -19.92 114.70 95 950 115 95 950 115
SI 09:00:00 TS -20.07 114.61 115 95 953 115
SI 10:00:00 TS -20.13 114.56 95 955 115 95 955 115
SI 12:00:00 TS -20.22 114.45 115 91 958 115
SI 13:00:00 TS -20.26 114.41 90 960 115 90 960 115
SI 15:00:00 TS -20.32 114.35 115 86 963 115
SI 16:00:00 TS -20.36 114.32 85 965 115 85 965 115
SI 18:00:00 TS -20.44 114.27 115 81 965 115
SI 19:00:00 TS -20.49 114.22 80 965 112 80 965 112
SI 21:00:00 TS -20.62 114.09 107 76 965 107
SI 22:00:00 TS -20.69 114.01 75 965 104 75 965 104
SI 1995-12-11 00:00:00 TS -20.81 113.86 100 71 965 100
SI 01:00:00 TS -20.88 113.79 70 965 100 70 965 100
SI 03:00:00 TS -21.03 113.68 100 73 965 100
SI 04:00:00 TS -21.11 113.62 75 965 100 75 965 100
SI 06:00:00 TS -21.30 113.50 100 78 965 100
SI 07:00:00 TS -21.39 113.44 80 965 100 80 965 100
SI 09:00:00 TS -21.56 113.35 100 80 965 100
SI 10:00:00 TS -21.65 113.31 80 965 100 80 965 100
SI 12:00:00 TS -21.81 113.22 100 73 968 100
SI 13:00:00 TS -21.90 113.18 70 970 98 70 970 98
SI 15:00:00 TS -22.08 113.10 95 66 970 95
SI 16:00:00 TS -22.17 113.07 65 970 93 65 970 93
SI 18:00:00 TS -22.36 113.01 90 61 973 90
SI 19:00:00 TS -22.46 112.98 60 975 86 60 975 86
SI 21:00:00 TS -22.64 112.95 80 56 978 80
SI 22:00:00 TS -22.72 112.95 55 980 76 55 980 76
SI 1995-12-12 00:00:00 TS -22.88 112.93 70 51 983 70
SI 01:00:00 TS -22.96 112.93 50 985 69 50 985 69
SI 03:00:00 TS -23.15 112.92 67 50 985 67
SI 04:00:00 TS -23.26 112.92 50 985 66 50 985 66
SI 06:00:00 TS -23.49 112.95 65 46 988 65
SI 07:00:00 TS -23.61 112.98 45 990 64 45 990 64
SI 09:00:00 TS -23.84 113.06 62 41 990 62
SI 10:00:00 TS -23.97 113.11 40 990 61 40 990 61
SI 12:00:00 TS -24.25 113.21 60 36 993 60
SI 13:00:00 TS -24.38 113.26 35 995 59 35 995 59
SI 15:00:00 TS -24.64 113.38 57 35 995 57
SI 16:00:00 TS -24.78 113.44 35 995 56 35 995 56
SI 18:00:00 TS -25.08 113.58 55 31 996 55
SI 19:00:00 TS -25.23 113.65 30 998 51 30 998 51
SI 21:00:00 TS -25.52 113.85 45 30 998 45
SI 22:00:00 TS -25.66 113.97 30 998 41 30 998 41
SI 1995-12-13 00:00:00 TS -25.95 114.23 35 26 999 35
SI 01:00:00 TS -26.11 114.38 25 1000 34 25 1000 34
SI 03:00:00 TS -26.41 114.74 32 25 1000 32
SI 06:00:00 TS -26.84 115.46 30 25 1000 30
SI 07:00:00 TS -26.95 115.75 25 1000 30 25 1000 30
SI 09:00:00 TS -27.12 116.40 30 30
SI 12:00:00 TS -27.40 117.40 30 30
SI 15:00:00 TS -27.70 118.39 27 27
SI 18:00:00 TS -28.00 119.40 25 25
SI 21:00:00 TS -28.30 120.40 20 20
SI 1995-12-14 00:00:00 TS -28.60 121.40 15 15

Source Information

Agency Information
USA bsh031996.txt
TOKYO
CMA
HKO
NEWDELHI
REUNION
BOM IDCKMSTM0S.csv:Line=18421:FRANK
NADI
WELLINGTON
DS824
TD9636
TD9635
NEUMANN tracks.sh:Storm=1039:FRANK:BSH031996:JTWC&BM844
MLC

All available IBTrACS Data

SEASON BASIN SUBBASIN ISO_TIME_________ NATURE LAT LON WMO WIND WMO PRES WMO AGENCY DIST2LAND LANDFALL IFLAG USA AGENCY USA ATCF_ID USA LAT USA LON USA WIND USA SSHS BOM LAT BOM LON BOM TYPE BOM WIND BOM PRES BOM CI BOM ROCI BOM EYE BOM POS_METHOD BOM PRES_METHOD NEUMANN LAT NEUMANN LON NEUMANN CLASS NEUMANN WIND STORM SPEED STORM DIR
Year degrees north degrees east kts mb km km degrees north degrees east kts 1 degrees north degrees east kts mb 1 nmile nmile degrees north degrees east kts kts degrees
1996 SI WA 1995-12-06 00:00:00 TS -10.30 115.80 158 155 O___________O_ jtwc_sh SH031996 -10.30 115.80 15 -1 -10.30 115.80 TC 15 8 117
1996 SI WA 03:00:00 TS -10.49 116.18 169 168 P___________P_ SH031996 -10.49 116.18 17 -1 -10.49 116.18 TC 17 9 112
1996 SI WA 04:00:00 TS -10.53 116.39 20 1005 bom 168 168 P_____O_____P_ SH031996 -10.55 116.32 18 -1 -10.40 116.80 20 20 1005 1.00 134 3 5 -10.55 116.32 TC 18 10 109
1996 SI WA 06:00:00 TS -10.65 116.66 182 180 O_____P_____O_ jtwc_sh SH031996 -10.70 116.60 20 -1 -10.46 116.92 20 20 1003 134 -10.70 116.60 TC 20 9 112
1996 SI WA 07:00:00 TS -10.70 116.82 20 1003 bom 180 179 P_____O_____P_ SH031996 -10.78 116.75 20 -1 -10.50 117.00 20 20 1003 1.00 134 3 5 -10.78 116.75 TC 20 10 114
1996 SI WA 09:00:00 TS -10.84 117.11 190 190 P_____P_____P_ SH031996 -10.95 117.06 20 -1 -10.63 117.19 20 23 1002 151 -10.95 117.06 TC 20 9 118
1996 SI WA 10:00:00 TS -10.92 117.25 25 1002 bom 201 202 P_____O_____P_ SH031996 -11.04 117.22 20 -1 -10.70 117.30 20 25 1002 1.50 161 3 5 -11.04 117.22 TC 20 9 121
1996 SI WA 12:00:00 TS -11.08 117.50 228 227 O_____P_____O_ jtwc_sh SH031996 -11.20 117.50 20 -1 -10.83 117.50 20 25 1002 161 -11.20 117.50 TC 20 9 122
1996 SI WA 13:00:00 TS -11.15 117.61 25 1002 bom 227 220 P_____O_____P_ SH031996 -11.27 117.62 20 -1 -10.90 117.60 20 25 1002 1.50 161 3 5 -11.27 117.62 TC 20 8 122
1996 SI WA 15:00:00 TS -11.28 117.83 228 222 P_____P_____P_ SH031996 -11.41 117.84 22 -1 -11.03 117.81 20 25 1000 161 -11.41 117.84 TC 22 7 123
1996 SI WA 16:00:00 TS -11.35 117.92 25 1000 bom 222 225 P_____O_____P_ SH031996 -11.47 117.93 23 -1 -11.10 117.90 20 25 1000 2.00 161 3 5 -11.47 117.93 TC 23 6 129
1996 SI WA 18:00:00 TS -11.48 118.07 229 224 O_____P_____O_ jtwc_sh SH031996 -11.60 118.10 25 -1 -11.23 118.02 20 28 998 161 -11.60 118.10 TC 25 6 130
1996 SI WA 19:00:00 TS -11.54 118.16 30 998 bom 224 230 P_____O_____P_ SH031996 -11.66 118.19 25 -1 -11.30 118.10 20 30 998 2.00 161 3 5 -11.66 118.19 TC 25 7 125
1996 SI WA 21:00:00 TS -11.67 118.35 236 236 P_____P_____P_ SH031996 -11.79 118.35 25 -1 -11.43 118.37 20 30 996 178 -11.79 118.35 TC 25 7 126
1996 SI WA 22:00:00 TS -11.74 118.44 30 996 bom 236 244 P_____O_____P_ SH031996 -11.86 118.41 25 -1 -11.50 118.50 20 30 996 2.00 188 3 5 -11.86 118.41 TC 25 6 139
1996 SI WA 1995-12-07 00:00:00 TS -11.89 118.55 250 250 O_____P_____O_ jtwc_sh SH031996 -12.00 118.50 25 -1 -11.68 118.65 20 30 996 188 -12.00 118.50 TC 25 6 150
1996 SI WA 01:00:00 TS -11.99 118.59 30 996 bom 261 261 P_____O_____P_ SH031996 -12.08 118.53 25 -1 -11.80 118.70 20 30 996 2.00 188 3 5 -12.08 118.53 TC 25 7 168
1996 SI WA 03:00:00 TS -12.21 118.62 282 282 P_____P_____P_ SH031996 -12.24 118.55 27 -1 -12.14 118.78 20 33 995 188 -12.24 118.55 TC 27 7 173
1996 SI WA 04:00:00 TS -12.32 118.63 35 995 bom 292 292 P_____O_____P_ SH031996 -12.33 118.54 28 -1 -12.30 118.80 30 35 995 3.00 188 3 5 -12.33 118.54 TC 28 6 182
1996 SI WA 06:00:00 TS -12.50 118.60 311 311 O_____P_____O_ jtwc_sh SH031996 -12.50 118.50 30 -1 -12.51 118.81 30 35 995 188 -12.50 118.50 TC 30 5 190
1996 SI WA 07:00:00 TS -12.59 118.59 35 995 bom 320 320 P_____O_____P_ SH031996 -12.58 118.48 30 -1 -12.60 118.80 30 35 995 3.00 188 3 5 -12.58 118.48 TC 30 6 196
1996 SI WA 09:00:00 TS -12.77 118.53 345 345 P_____P_____P_ SH031996 -12.75 118.42 32 -1 -12.81 118.74 30 35 995 188 -12.75 118.42 TC 32 6 199
1996 SI WA 10:00:00 TS -12.86 118.49 35 995 bom 354 354 P_____O_____P_ SH031996 -12.83 118.39 33 -1 -12.90 118.70 30 35 995 3.00 188 3 5 -12.83 118.39 TC 33 5 205
1996 SI WA 12:00:00 TS -13.01 118.41 369 369 O_____P_____O_ jtwc_sh SH031996 -13.00 118.30 35 0 -13.03 118.64 30 38 991 188 -13.00 118.30 TC 35 5 207
1996 SI WA 13:00:00 TS -13.09 118.37 40 990 bom 379 379 P_____O_____P_ SH031996 -13.08 118.26 35 0 -13.10 118.60 30 40 990 3.00 188 3 5 -13.08 118.26 TC 35 6 210
1996 SI WA 15:00:00 TS -13.27 118.26 404 404 P_____P_____P_ SH031996 -13.25 118.16 35 0 -13.30 118.47 30 40 990 188 -13.25 118.16 TC 35 6 211
1996 SI WA 16:00:00 TS -13.36 118.20 40 990 bom 419 419 P_____O_____P_ SH031996 -13.33 118.11 35 0 -13.40 118.40 30 40 990 3.00 188 3 5 -13.33 118.11 TC 35 6 214
1996 SI WA 18:00:00 TS -13.51 118.09 434 434 O_____P_____O_ jtwc_sh SH031996 -13.50 118.00 35 0 -13.54 118.27 30 40 990 188 -13.50 118.00 TC 35 6 216
1996 SI WA 19:00:00 TS -13.59 118.03 40 990 bom 449 449 P_____O_____P_ SH031996 -13.58 117.95 36 0 -13.60 118.20 30 40 990 3.00 188 3 5 -13.58 117.95 TC 36 6 219
1996 SI WA 21:00:00 TS -13.74 117.90 465 465 P_____P_____P_ SH031996 -13.75 117.85 40 0 -13.73 118.00 30 43 986 188 -13.75 117.85 TC 40 6 220
1996 SI WA 22:00:00 TS -13.82 117.83 45 985 bom 480 480 P_____O_____P_ SH031996 -13.83 117.80 41 0 -13.80 117.90 30 45 985 3.00 188 3 5 -13.83 117.80 TC 41 6 214
1996 SI WA 1995-12-08 00:00:00 TS -14.00 117.72 505 505 O_____P_____O_ jtwc_sh SH031996 -14.00 117.70 45 0 -14.00 117.76 30 45 985 188 -14.00 117.70 TC 45 6 212
1996 SI WA 01:00:00 TS -14.09 117.67 45 985 bom 514 514 P_____O_____P_ SH031996 -14.08 117.65 45 0 -14.10 117.70 30 45 985 3.00 188 3 5 -14.08 117.65 TC 45 6 214
1996 SI WA 03:00:00 TS -14.24 117.56 529 529 P_____P_____P_ SH031996 -14.24 117.55 45 0 -14.22 117.57 30 45 985 205 -14.24 117.55 TC 45 6 216
1996 SI WA 04:00:00 TS -14.32 117.50 45 985 bom 543 543 P_____O_____P_ SH031996 -14.33 117.50 45 0 -14.30 117.50 30 45 985 3.00 215 3 5 -14.33 117.50 TC 45 7 209
1996 SI WA 06:00:00 TS -14.52 117.39 568 568 O_____P_____O_ jtwc_sh SH031996 -14.50 117.40 45 0 -14.56 117.37 30 51 981 215 -14.50 117.40 TC 45 7 207
1996 SI WA 07:00:00 TS -14.63 117.34 55 980 bom 582 582 P_____O_____P_ SH031996 -14.59 117.35 45 0 -14.70 117.30 30 55 980 4.00 215 3 5 -14.59 117.35 TC 45 8 209
1996 SI WA 09:00:00 TS -14.85 117.20 603 598 P_____P_____P_ SH031996 -14.78 117.26 47 0 -14.97 117.10 30 55 980 232 -14.78 117.26 TC 47 8 210
1996 SI WA 10:00:00 TS -14.96 117.14 55 980 bom 602 591 P_____O_____P_ SH031996 -14.89 117.21 48 0 -15.10 117.00 30 55 980 4.00 242 3 5 -14.89 117.21 TC 48 7 209
1996 SI WA 12:00:00 TS -15.17 117.02 591 581 O_____P_____O_ jtwc_sh SH031996 -15.10 117.10 50 0 -15.31 116.86 30 58 976 242 -15.10 117.10 TC 50 7 209
1996 SI WA 13:00:00 TS -15.27 116.96 60 975 bom 581 565 P_____O_____P_ SH031996 -15.21 117.04 50 0 -15.40 116.80 30 60 975 4.00 242 3 5 -15.21 117.04 TC 50 7 212
1996 SI WA 15:00:00 TS -15.47 116.83 565 554 P_____P_____P_ SH031996 -15.44 116.91 52 0 -15.53 116.67 30 60 975 242 -15.44 116.91 TC 52 7 213
1996 SI WA 16:00:00 TS -15.57 116.76 60 975 bom 554 537 P_____O_____P_ SH031996 -15.55 116.84 53 0 -15.60 116.60 30 60 975 4.00 242 3 5 -15.55 116.84 TC 53 8 211
1996 SI WA 18:00:00 TS -15.80 116.62 537 525 O_____P_____O_ jtwc_sh SH031996 -15.80 116.70 55 0 -15.79 116.47 30 63 971 242 -15.80 116.70 TC 55 8 209
1996 SI WA 19:00:00 TS -15.92 116.55 65 970 bom 525 503 P_____O_____P_ SH031996 -15.93 116.63 56 0 -15.90 116.40 40 65 970 4.50 242 3 5 -15.93 116.63 TC 56 8 208
1996 SI WA 21:00:00 TS -16.16 116.42 493 482 P_____P_____P_ SH031996 -16.19 116.49 60 0 -16.10 116.27 40 68 966 242 -16.19 116.49 TC 60 8 208
1996 SI WA 22:00:00 TS -16.29 116.35 70 965 bom 482 460 P_____O_____P_ SH031996 -16.33 116.43 61 0 -16.20 116.20 40 70 965 4.50 242 3 5 -16.33 116.43 TC 61 8 207
1996 SI WA 1995-12-09 00:00:00 TS -16.53 116.22 461 439 O_____P_____O_ jtwc_sh SH031996 -16.60 116.30 65 1 -16.38 116.07 40 70 965 242 -16.60 116.30 TC 65 8 206
1996 SI WA 01:00:00 TS -16.66 116.16 70 965 bom 439 418 P_____O_____P_ SH031996 -16.74 116.24 66 1 -16.50 116.00 40 70 965 4.50 242 3 5 -16.74 116.24 TC 66 9 205
1996 SI WA 03:00:00 TS -16.96 116.02 409 398 P_____P_____P_ SH031996 -17.01 116.13 70 1 -16.84 115.78 40 70 965 242 -17.01 116.13 TC 70 10 204
1996 SI WA 04:00:00 TS -17.10 115.96 70 965 bom 398 378 P_____O_____P_ SH031996 -17.15 116.09 71 1 -17.00 115.70 40 70 965 4.50 242 4 5 -17.15 116.09 TC 71 8 196
1996 SI WA 06:00:00 TS -17.33 115.90 378 367 O_____P_____O_ jtwc_sh SH031996 -17.40 116.00 75 1 -17.20 115.69 40 73 961 242 -17.40 116.00 TC 75 7 194
1996 SI WA 07:00:00 TS -17.44 115.88 75 960 bom 367 348 P_____O_____P_ SH031996 -17.51 115.96 75 1 -17.30 115.70 40 75 960 4.50 242 4 5 -17.51 115.96 TC 75 7 193
1996 SI WA 09:00:00 TS -17.66 115.82 337 327 P_____P_____P_ SH031996 -17.71 115.90 75 1 -17.56 115.65 40 75 956 242 -17.71 115.90 TC 75 7 195
1996 SI WA 10:00:00 TS -17.77 115.78 75 955 bom 327 309 P_____O_____P_ SH031996 -17.80 115.87 75 1 -17.70 115.60 40 75 955 4.50 242 4 5 -17.80 115.87 TC 75 7 200
1996 SI WA 12:00:00 TS -17.99 115.69 309 298 O_____P_____O_ jtwc_sh SH031996 -18.00 115.80 75 1 -17.97 115.46 40 75 955 259 -18.00 115.80 TC 75 7 201
1996 SI WA 13:00:00 TS -18.11 115.64 75 955 bom 302 281 P_____O_____P_ SH031996 -18.11 115.76 75 1 -18.10 115.40 40 75 955 4.50 269 4 5 -18.11 115.76 TC 75 7 201
1996 SI WA 15:00:00 TS -18.34 115.55 281 276 P_____P_____P_ SH031996 -18.35 115.66 75 1 -18.31 115.33 40 78 955 269 -18.35 115.66 TC 75 7 201
1996 SI WA 16:00:00 TS -18.45 115.51 80 955 bom 276 256 P_____O_____P_ SH031996 -18.47 115.61 75 1 -18.40 115.30 40 80 955 5.00 269 4 5 -18.47 115.61 TC 75 7 204
1996 SI WA 18:00:00 TS -18.64 115.41 261 252 O_____P_____O_ jtwc_sh SH031996 -18.70 115.50 75 1 -18.53 115.23 40 83 955 269 -18.70 115.50 TC 75 7 206
1996 SI WA 19:00:00 TS -18.74 115.36 85 955 bom 252 240 P_____O_____P_ SH031996 -18.81 115.44 77 1 -18.60 115.20 40 85 955 5.00 269 22 4 5 -18.81 115.44 TC 77 7 208
1996 SI WA 21:00:00 TS -18.93 115.25 246 236 P_____P_____P_ SH031996 -19.01 115.30 82 1 -18.79 115.14 40 88 951 269 -19.01 115.30 TC 82 7 208
1996 SI WA 22:00:00 TS -19.04 115.19 90 950 bom 236 222 P_____O_____P_ SH031996 -19.11 115.23 85 2 -18.90 115.10 40 90 950 5.50 269 22 6 5 -19.11 115.23 TC 85 7 209
1996 SI WA 1995-12-10 00:00:00 TS -19.26 115.06 212 209 O_____P_____O_ jtwc_sh SH031996 -19.30 115.10 90 2 -19.17 114.97 40 90 950 269 -19.30 115.10 TC 90 8 209
1996 SI WA 01:00:00 TS -19.37 115.00 90 950 bom 209 197 P_____O_____P_ SH031996 -19.41 115.04 94 2 -19.30 114.90 40 90 950 5.50 269 22 6 5 -19.41 115.04 TC 94 7 207
1996 SI WA 03:00:00 TS -19.58 114.88 197 194 P_____P_____P_ SH031996 -19.61 114.94 102 3 -19.51 114.76 40 93 950 269 -19.61 114.94 TC 102 7 207
1996 SI WA 04:00:00 TS -19.68 114.83 95 950 bom 194 185 P_____O_____P_ SH031996 -19.72 114.89 106 3 -19.60 114.70 40 95 950 5.50 269 22 6 5 -19.72 114.89 TC 106 6 206
1996 SI WA 06:00:00 TS -19.85 114.74 191 183 O_____P_____O_ jtwc_sh SH031996 -19.90 114.80 115 4 -19.74 114.63 40 95 950 269 -19.90 114.80 TC 115 6 207
1996 SI WA 07:00:00 TS -19.92 114.70 95 950 bom 183 175 P_____O_____P_ SH031996 -19.98 114.75 115 4 -19.80 114.60 40 95 950 5.50 269 19 6 5 -19.98 114.75 TC 115 5 209
1996 SI WA 09:00:00 TS -20.07 114.61 175 175 P_____P_____P_ SH031996 -20.13 114.64 115 4 -19.94 114.54 40 95 953 269 -20.13 114.64 TC 115 5 212
1996 SI WA 10:00:00 TS -20.13 114.56 95 955 bom 175 172 P_____O_____P_ SH031996 -20.19 114.59 115 4 -20.00 114.50 40 95 955 5.50 269 19 6 5 -20.19 114.59 TC 115 4 223
1996 SI WA 12:00:00 TS -20.22 114.45 172 164 O_____P_____O_ jtwc_sh SH031996 -20.30 114.50 115 4 -20.07 114.36 40 91 958 269 -20.30 114.50 TC 115 4 226
1996 SI WA 13:00:00 TS -20.26 114.41 90 960 bom 164 164 P_____O_____P_ SH031996 -20.34 114.47 115 4 -20.10 114.30 40 90 960 5.50 269 19 6 5 -20.34 114.47 TC 115 3 223
1996 SI WA 15:00:00 TS -20.32 114.35 168 158 P_____P_____P_ SH031996 -20.41 114.41 115 4 -20.16 114.22 40 86 963 269 -20.41 114.41 TC 115 3 220
1996 SI WA 16:00:00 TS -20.36 114.32 85 965 bom 158 158 P_____O_____P_ SH031996 -20.44 114.38 115 4 -20.20 114.20 40 85 965 5.00 269 18 6 5 -20.44 114.38 TC 115 3 216
1996 SI WA 18:00:00 TS -20.44 114.27 158 147 O_____P_____O_ jtwc_sh SH031996 -20.50 114.30 115 4 -20.32 114.20 40 81 965 269 -20.50 114.30 TC 115 3 216
1996 SI WA 19:00:00 TS -20.49 114.22 80 965 bom 151 140 P_____O_____P_ SH031996 -20.54 114.23 112 3 -20.40 114.20 40 80 965 5.00 269 18 6 5 -20.54 114.23 TC 112 5 224
1996 SI WA 21:00:00 TS -20.62 114.09 143 134 P_____P_____P_ SH031996 -20.63 114.06 107 3 -20.60 114.15 40 76 965 251 -20.63 114.06 TC 107 5 225
1996 SI WA 22:00:00 TS -20.69 114.01 75 965 bom 134 123 P_____O_____P_ SH031996 -20.68 113.97 104 3 -20.70 114.10 40 75 965 4.50 242 18 6 5 -20.68 113.97 TC 104 6 228
1996 SI WA 1995-12-11 00:00:00 TS -20.81 113.86 123 113 O_____P_____O_ jtwc_sh SH031996 -20.80 113.80 100 3 -20.84 113.97 40 71 965 242 -20.80 113.80 TC 100 6 226
1996 SI WA 01:00:00 TS -20.88 113.79 70 965 bom 113 105 P_____O_____P_ SH031996 -20.87 113.74 100 3 -20.90 113.90 40 70 965 4.50 242 18 6 5 -20.87 113.74 TC 100 6 218
1996 SI WA 03:00:00 TS -21.03 113.68 105 94 P_____P_____P_ SH031996 -21.03 113.63 100 3 -21.03 113.77 40 73 965 242 -21.03 113.63 TC 100 6 214
1996 SI WA 04:00:00 TS -21.11 113.62 75 965 bom 98 84 P_____O_____P_ SH031996 -21.12 113.58 100 3 -21.10 113.70 40 75 965 4.50 242 18 6 5 -21.12 113.58 TC 100 6 211
1996 SI WA 06:00:00 TS -21.30 113.50 84 76 O_____P_____O_ jtwc_sh SH031996 -21.30 113.50 100 3 -21.29 113.50 40 78 965 224 -21.30 113.50 TC 100 6 211
1996 SI WA 07:00:00 TS -21.39 113.44 80 965 bom 83 76 P_____O_____P_ SH031996 -21.38 113.46 100 3 -21.40 113.40 40 80 965 5.00 215 15 4 5 -21.38 113.46 TC 100 6 208
1996 SI WA 09:00:00 TS -21.56 113.35 79 75 P_____P_____P_ SH031996 -21.54 113.39 100 3 -21.61 113.26 40 80 965 215 -21.54 113.39 TC 100 6 205
1996 SI WA 10:00:00 TS -21.65 113.31 80 965 bom 75 75 P_____O_____P_ SH031996 -21.63 113.36 100 3 -21.70 113.20 40 80 965 5.00 215 12 4 5 -21.63 113.36 TC 100 6 205
1996 SI WA 12:00:00 TS -21.81 113.22 79 75 O_____P_____O_ jtwc_sh SH031996 -21.80 113.30 100 3 -21.84 113.06 40 73 968 215 -21.80 113.30 TC 100 6 207
1996 SI WA 13:00:00 TS -21.90 113.18 70 970 bom 75 70 P_____O_____P_ SH031996 -21.90 113.26 98 3 -21.90 113.00 40 70 970 4.50 215 11 4 5 -21.90 113.26 TC 98 6 202
1996 SI WA 15:00:00 TS -22.08 113.10 75 68 P_____P_____P_ SH031996 -22.10 113.19 95 2 -22.03 112.93 40 66 970 215 -22.10 113.19 TC 95 6 200
1996 SI WA 16:00:00 TS -22.17 113.07 65 970 bom 68 68 P_____O_____P_ SH031996 -22.20 113.16 93 2 -22.10 112.90 40 65 970 4.50 215 5 4 5 -22.20 113.16 TC 93 6 198
1996 SI WA 18:00:00 TS -22.36 113.01 65 62 O_____P_____O_ jtwc_sh SH031996 -22.40 113.10 90 2 -22.29 112.83 40 61 973 215 -22.40 113.10 TC 90 6 194
1996 SI WA 19:00:00 TS -22.46 112.98 60 975 bom 62 61 P_____O_____P_ SH031996 -22.49 113.07 86 2 -22.40 112.80 30 60 975 4.00 215 3 5 -22.49 113.07 TC 86 6 192
1996 SI WA 21:00:00 TS -22.64 112.95 61 61 P_____P_____P_ SH031996 -22.65 113.03 80 1 -22.61 112.79 30 56 978 215 -22.65 113.03 TC 80 5 188
1996 SI WA 22:00:00 TS -22.72 112.95 55 980 bom 72 72 P_____O_____P_ SH031996 -22.73 113.02 76 1 -22.70 112.80 30 55 980 4.00 215 3 5 -22.73 113.02 TC 76 5 0
1996 SI WA 1995-12-12 00:00:00 TS -22.88 112.93 79 79 O_____P_____O_ jtwc_sh SH031996 -22.90 113.00 70 1 -22.83 112.80 30 51 983 197 -22.90 113.00 TC 70 5 182
1996 SI WA 01:00:00 TS -22.96 112.93 50 985 bom 84 84 P_____O_____P_ SH031996 -22.99 112.99 69 1 -22.90 112.80 30 50 985 3.50 188 3 5 -22.99 112.99 TC 69 6 0
1996 SI WA 03:00:00 TS -23.15 112.92 91 90 P_____P_____P_ SH031996 -23.18 112.98 67 1 -23.09 112.79 30 50 985 188 -23.18 112.98 TC 67 6 0
1996 SI WA 04:00:00 TS -23.26 112.92 50 985 bom 90 75 P_____O_____P_ SH031996 -23.29 112.98 66 1 -23.20 112.80 30 50 985 3.50 188 3 5 -23.29 112.98 TC 66 7 172
1996 SI WA 06:00:00 TS -23.49 112.95 67 60 O_____P_____O_ jtwc_sh SH031996 -23.50 113.00 65 1 -23.46 112.85 30 46 988 188 -23.50 113.00 TC 65 7 171
1996 SI WA 07:00:00 TS -23.61 112.98 45 990 bom 60 42 P_____O_____P_ SH031996 -23.61 113.02 64 1 -23.60 112.90 30 45 990 3.00 188 3 5 -23.61 113.02 TC 64 7 165
1996 SI WA 09:00:00 TS -23.84 113.06 42 40 P_____P_____P_ SH031996 -23.83 113.08 62 0 -23.86 113.03 30 41 990 188 -23.83 113.08 TC 62 8 162
1996 SI WA 10:00:00 TS -23.97 113.11 40 990 bom 40 30 P_____O_____P_ SH031996 -23.95 113.11 61 0 -24.00 113.10 30 40 990 3.00 188 3 5 -23.95 113.11 TC 61 9 161
1996 SI WA 12:00:00 TS -24.25 113.21 30 10 O_____P_____O_ jtwc_sh SH031996 -24.20 113.20 60 0 -24.34 113.23 30 36 993 188 -24.20 113.20 TC 60 9 162
1996 SI WA 13:00:00 TS -24.38 113.26 35 995 bom 10 10 P_____O_____P_ SH031996 -24.32 113.23 59 0 -24.50 113.30 30 35 995 3.00 188 3 5 -24.32 113.23 TC 59 9 159
1996 SI WA 15:00:00 TS -24.64 113.38 15 15 P_____P_____P_ SH031996 -24.58 113.31 57 0 -24.76 113.50 30 35 995 188 -24.58 113.31 TC 57 9 157
1996 SI WA 16:00:00 TS -24.78 113.44 35 995 bom 23 10 P_____O_____P_ SH031996 -24.72 113.36 56 0 -24.90 113.60 30 35 995 3.00 188 3 4 -24.72 113.36 TC 56 9 157
1996 SI WA 18:00:00 TS -25.08 113.58 10 10 O_____P_____O_ jtwc_sh SH031996 -25.00 113.50 55 0 -25.24 113.73 30 31 996 188 -25.00 113.50 TC 55 10 157
1996 SI WA 19:00:00 TS -25.23 113.65 30 998 bom 10 15 P_____O_____P_ SH031996 -25.14 113.58 51 0 -25.40 113.80 20 30 998 2.50 188 3 5 -25.14 113.58 TC 51 10 151
1996 SI WA 21:00:00 TS -25.52 113.85 20 10 P_____P_____P_ SH031996 -25.44 113.78 45 0 -25.67 113.99 20 30 998 170 -25.44 113.78 TC 45 10 147
1996 SI WA 22:00:00 TS -25.66 113.97 30 998 bom 15 9 P_____O_____P_ SH031996 -25.59 113.90 41 0 -25.80 114.10 20 30 998 2.50 161 3 5 -25.59 113.90 TC 41 11 142
1996 SI WA 1995-12-13 00:00:00 TS -25.95 114.23 9 0 O_____P_____O_ jtwc_sh SH031996 -25.90 114.20 35 0 -26.06 114.29 20 26 999 143 -25.90 114.20 TC 35 12 140
1996 SI WA 01:00:00 TS -26.11 114.38 25 1000 bom 0 0 P_____O_____P_ SH031996 -26.06 114.37 34 0 -26.20 114.40 20 25 1000 2.00 134 3 5 -26.06 114.37 TC 34 13 135
1996 SI WA 03:00:00 TS -26.41 114.74 0 0 P_____P_____P_ SH031996 -26.37 114.76 32 -1 -26.51 114.70 20 25 1000 134 -26.37 114.76 TC 32 15 127
1996 SI WA 06:00:00 TS -26.84 115.46 0 0 O_____P_____O_ jtwc_sh SH031996 -26.80 115.50 30 -1 -27.02 115.29 20 25 1000 134 -26.80 115.50 TC 30 16 121
1996 SI WA 07:00:00 TS -26.95 115.75 25 1000 bom 0 0 P_____O_____P_ SH031996 -26.92 115.78 30 -1 -27.20 115.50 80 25 1000 134 3 5 -26.92 115.78 TC 30 18 108
1996 SI WA 09:00:00 TS -27.12 116.40 0 0 P___________P_ SH031996 -27.12 116.40 30 -1 80 -27.12 116.40 TC 30 18 107
1996 SI WA 12:00:00 TS -27.40 117.40 0 0 O___________O_ jtwc_sh SH031996 -27.40 117.40 30 -1 80 -27.40 117.40 TC 30 19 108
1996 SI WA 15:00:00 TS -27.70 118.39 0 0 P___________P_ SH031996 -27.70 118.39 27 -1 -27.70 118.39 TC 27 19 109
1996 SI WA 18:00:00 TS -28.00 119.40 0 0 O___________O_ jtwc_sh SH031996 -28.00 119.40 25 -1 -28.00 119.40 TC 25 19 109
1996 SI WA 21:00:00 TS -28.30 120.40 0 0 P___________P_ SH031996 -28.30 120.40 20 -1 -28.30 120.40 TC 20 19 109
1996 SI WA 1995-12-14 00:00:00 TS -28.60 121.40 0 O___________O_ jtwc_sh SH031996 -28.60 121.40 15 -1 -28.60 121.40 TC 15 19 109